sensor_id;sensor_type;location;lat;lon;timestamp;pressure;altitude;pressure_sealevel;temperature;humidity
77587;BME280;66744;49.716;17.158;2023-06-26T00:00:26;99195.25;;;18.53;61.77
77587;BME280;66744;49.716;17.158;2023-06-26T00:03:28;99207.75;;;18.43;63.96
77587;BME280;66744;49.716;17.158;2023-06-26T00:06:41;99195.47;;;18.35;62.96
77587;BME280;66744;49.716;17.158;2023-06-26T00:09:43;99202.22;;;18.28;61.78
77587;BME280;66744;49.716;17.158;2023-06-26T00:12:50;99201.38;;;18.22;60.98
77587;BME280;66744;49.716;17.158;2023-06-26T00:16:01;99197.91;;;18.13;61.03
77587;BME280;66744;49.716;17.158;2023-06-26T00:19:19;99200.53;;;18.02;61.89
77587;BME280;66744;49.716;17.158;2023-06-26T00:22:28;99196.13;;;17.95;63.54
77587;BME280;66744;49.716;17.158;2023-06-26T00:25:40;99204.94;;;17.94;64.08
77587;BME280;66744;49.716;17.158;2023-06-26T00:28:43;99203.41;;;17.93;64.26
77587;BME280;66744;49.716;17.158;2023-06-26T00:31:45;99206.47;;;17.95;65.04
77587;BME280;66744;49.716;17.158;2023-06-26T00:34:47;99206.13;;;17.87;64.76
77587;BME280;66744;49.716;17.158;2023-06-26T00:37:50;99206.03;;;17.82;64.83
77587;BME280;66744;49.716;17.158;2023-06-26T00:40:51;99195.38;;;17.80;66.20
77587;BME280;66744;49.716;17.158;2023-06-26T00:43:55;99200.84;;;17.74;66.06
77587;BME280;66744;49.716;17.158;2023-06-26T00:46:57;99201.31;;;17.73;66.18
77587;BME280;66744;49.716;17.158;2023-06-26T00:49:59;99200.94;;;17.80;65.66
77587;BME280;66744;49.716;17.158;2023-06-26T00:53:00;99192.59;;;17.80;66.71
77587;BME280;66744;49.716;17.158;2023-06-26T00:56:03;99192.41;;;17.84;65.60
77587;BME280;66744;49.716;17.158;2023-06-26T00:59:04;99204.06;;;17.88;65.94
77587;BME280;66744;49.716;17.158;2023-06-26T01:02:06;99190.00;;;17.76;66.50
77587;BME280;66744;49.716;17.158;2023-06-26T01:05:08;99192.00;;;17.76;66.24
77587;BME280;66744;49.716;17.158;2023-06-26T01:08:14;99186.53;;;17.67;67.04
77587;BME280;66744;49.716;17.158;2023-06-26T01:11:16;99197.38;;;17.65;66.34
77587;BME280;66744;49.716;17.158;2023-06-26T01:14:18;99185.94;;;17.48;66.51
77587;BME280;66744;49.716;17.158;2023-06-26T01:17:20;99187.47;;;17.49;66.75
77587;BME280;66744;49.716;17.158;2023-06-26T01:20:22;99191.97;;;17.47;65.90
77587;BME280;66744;49.716;17.158;2023-06-26T01:23:30;99186.84;;;17.54;66.56
77587;BME280;66744;49.716;17.158;2023-06-26T01:26:34;99174.94;;;17.54;65.29
77587;BME280;66744;49.716;17.158;2023-06-26T01:29:37;99182.88;;;17.46;65.69
77587;BME280;66744;49.716;17.158;2023-06-26T01:32:39;99183.25;;;17.39;65.77
77587;BME280;66744;49.716;17.158;2023-06-26T01:35:41;99180.28;;;17.28;67.19
77587;BME280;66744;49.716;17.158;2023-06-26T01:38:43;99181.53;;;17.27;66.22
77587;BME280;66744;49.716;17.158;2023-06-26T01:41:45;99176.44;;;17.26;67.13
77587;BME280;66744;49.716;17.158;2023-06-26T01:44:47;99182.66;;;17.20;66.61
77587;BME280;66744;49.716;17.158;2023-06-26T01:47:50;99173.34;;;17.09;67.62
77587;BME280;66744;49.716;17.158;2023-06-26T01:50:54;99167.50;;;17.07;66.91
77587;BME280;66744;49.716;17.158;2023-06-26T01:53:58;99165.78;;;17.09;67.71
77587;BME280;66744;49.716;17.158;2023-06-26T01:57:01;99165.78;;;17.09;67.17
77587;BME280;66744;49.716;17.158;2023-06-26T02:00:03;99166.75;;;17.06;66.97
77587;BME280;66744;49.716;17.158;2023-06-26T02:03:14;99167.78;;;17.09;66.88
77587;BME280;66744;49.716;17.158;2023-06-26T02:06:15;99176.50;;;17.16;66.93
77587;BME280;66744;49.716;17.158;2023-06-26T02:09:17;99167.63;;;17.12;65.79
77587;BME280;66744;49.716;17.158;2023-06-26T02:12:19;99176.50;;;17.16;65.29
77587;BME280;66744;49.716;17.158;2023-06-26T02:15:20;99178.13;;;17.08;65.96
77587;BME280;66744;49.716;17.158;2023-06-26T02:18:25;99175.91;;;16.98;66.82
77587;BME280;66744;49.716;17.158;2023-06-26T02:21:26;99177.63;;;16.95;65.42
77587;BME280;66744;49.716;17.158;2023-06-26T02:24:31;99176.25;;;16.91;67.11
77587;BME280;66744;49.716;17.158;2023-06-26T02:27:33;99172.44;;;16.88;65.62
77587;BME280;66744;49.716;17.158;2023-06-26T02:30:37;99182.47;;;16.86;65.81
77587;BME280;66744;49.716;17.158;2023-06-26T02:33:38;99187.44;;;16.82;66.64
77587;BME280;66744;49.716;17.158;2023-06-26T02:36:40;99171.44;;;16.77;66.21
77587;BME280;66744;49.716;17.158;2023-06-26T02:39:41;99178.09;;;16.70;65.64
77587;BME280;66744;49.716;17.158;2023-06-26T02:42:45;99169.38;;;16.62;65.97
77587;BME280;66744;49.716;17.158;2023-06-26T02:45:47;99178.19;;;16.52;67.75
77587;BME280;66744;49.716;17.158;2023-06-26T02:48:48;99177.31;;;16.46;66.52
77587;BME280;66744;49.716;17.158;2023-06-26T02:51:50;99173.97;;;16.42;68.21
77587;BME280;66744;49.716;17.158;2023-06-26T02:55:00;99168.56;;;16.38;66.84
77587;BME280;66744;49.716;17.158;2023-06-26T02:58:02;99181.66;;;16.38;68.06
77587;BME280;66744;49.716;17.158;2023-06-26T03:01:04;99184.28;;;16.41;68.65
77587;BME280;66744;49.716;17.158;2023-06-26T03:04:05;99174.13;;;16.38;68.45
77587;BME280;66744;49.716;17.158;2023-06-26T03:07:09;99176.41;;;16.40;68.19
77587;BME280;66744;49.716;17.158;2023-06-26T03:10:12;99175.97;;;16.41;68.55
77587;BME280;66744;49.716;17.158;2023-06-26T03:13:16;99175.19;;;16.41;67.16
77587;BME280;66744;49.716;17.158;2023-06-26T03:16:19;99172.88;;;16.39;67.56
77587;BME280;66744;49.716;17.158;2023-06-26T03:19:20;99172.41;;;16.41;68.34
77587;BME280;66744;49.716;17.158;2023-06-26T03:22:48;99178.69;;;16.50;67.65
77587;BME280;66744;49.716;17.158;2023-06-26T03:25:53;99176.38;;;16.49;66.14
77587;BME280;66744;49.716;17.158;2023-06-26T03:29:00;99171.75;;;16.46;65.94
77587;BME280;66744;49.716;17.158;2023-06-26T03:32:01;99179.31;;;16.45;66.50
77587;BME280;66744;49.716;17.158;2023-06-26T03:35:03;99173.59;;;16.49;68.61
77587;BME280;66744;49.716;17.158;2023-06-26T03:38:05;99177.63;;;16.48;67.23
77587;BME280;66744;49.716;17.158;2023-06-26T03:41:10;99184.50;;;16.52;68.54
77587;BME280;66744;49.716;17.158;2023-06-26T03:44:12;99183.59;;;16.55;67.30
77587;BME280;66744;49.716;17.158;2023-06-26T03:47:23;99177.91;;;16.50;67.55
77587;BME280;66744;49.716;17.158;2023-06-26T03:50:24;99187.59;;;16.54;67.47
77587;BME280;66744;49.716;17.158;2023-06-26T03:53:26;99183.72;;;16.61;67.50
77587;BME280;66744;49.716;17.158;2023-06-26T03:56:27;99179.75;;;16.77;66.51
77587;BME280;66744;49.716;17.158;2023-06-26T03:59:30;99186.91;;;16.92;67.17
77587;BME280;66744;49.716;17.158;2023-06-26T04:02:31;99177.56;;;17.04;66.02
77587;BME280;66744;49.716;17.158;2023-06-26T04:05:33;99183.59;;;17.17;66.34
77587;BME280;66744;49.716;17.158;2023-06-26T04:08:36;99178.91;;;17.23;66.23
77587;BME280;66744;49.716;17.158;2023-06-26T04:11:37;99177.78;;;17.30;65.37
77587;BME280;66744;49.716;17.158;2023-06-26T04:14:39;99179.72;;;17.39;65.57
77587;BME280;66744;49.716;17.158;2023-06-26T04:17:40;99184.97;;;17.37;66.24
77587;BME280;66744;49.716;17.158;2023-06-26T04:21:10;99181.34;;;17.45;66.89
77587;BME280;66744;49.716;17.158;2023-06-26T04:24:12;99191.72;;;17.59;66.09
77587;BME280;66744;49.716;17.158;2023-06-26T04:27:17;99177.16;;;17.64;66.45
77587;BME280;66744;49.716;17.158;2023-06-26T04:30:19;99175.16;;;17.65;66.44
77587;BME280;66744;49.716;17.158;2023-06-26T04:33:21;99172.88;;;17.63;66.85
77587;BME280;66744;49.716;17.158;2023-06-26T04:36:22;99174.00;;;17.71;67.07
77587;BME280;66744;49.716;17.158;2023-06-26T04:39:23;99164.72;;;17.74;66.13
77587;BME280;66744;49.716;17.158;2023-06-26T04:42:25;99174.00;;;17.86;66.96
77587;BME280;66744;49.716;17.158;2023-06-26T04:45:26;99162.00;;;17.95;66.62
77587;BME280;66744;49.716;17.158;2023-06-26T04:48:28;99175.78;;;18.04;66.55
77587;BME280;66744;49.716;17.158;2023-06-26T04:51:32;99178.94;;;18.11;66.06
77587;BME280;66744;49.716;17.158;2023-06-26T04:54:33;99184.69;;;18.22;66.12
77587;BME280;66744;49.716;17.158;2023-06-26T04:57:34;99177.09;;;18.23;66.71
77587;BME280;66744;49.716;17.158;2023-06-26T05:00:39;99171.44;;;18.32;66.65
77587;BME280;66744;49.716;17.158;2023-06-26T05:03:43;99170.50;;;18.55;65.67
77587;BME280;66744;49.716;17.158;2023-06-26T05:06:46;99183.16;;;18.56;66.17
77587;BME280;66744;49.716;17.158;2023-06-26T05:09:47;99169.88;;;18.66;65.80
77587;BME280;66744;49.716;17.158;2023-06-26T05:12:49;99171.97;;;18.71;65.62
77587;BME280;66744;49.716;17.158;2023-06-26T05:15:52;99170.22;;;18.94;65.51
77587;BME280;66744;49.716;17.158;2023-06-26T05:18:53;99173.97;;;19.11;65.21
77587;BME280;66744;49.716;17.158;2023-06-26T05:21:56;99168.81;;;19.24;64.93
77587;BME280;66744;49.716;17.158;2023-06-26T05:24:58;99180.31;;;19.37;64.94
77587;BME280;66744;49.716;17.158;2023-06-26T05:28:04;99179.22;;;19.29;65.04
77587;BME280;66744;49.716;17.158;2023-06-26T05:31:11;99185.53;;;19.24;65.20
77587;BME280;66744;49.716;17.158;2023-06-26T05:34:13;99186.75;;;19.43;64.43
77587;BME280;66744;49.716;17.158;2023-06-26T05:37:20;99183.81;;;19.52;64.49
77587;BME280;66744;49.716;17.158;2023-06-26T05:40:22;99179.47;;;19.77;62.92
77587;BME280;66744;49.716;17.158;2023-06-26T05:43:25;99177.06;;;19.95;62.61
77587;BME280;66744;49.716;17.158;2023-06-26T05:46:26;99186.31;;;20.07;62.16
77587;BME280;66744;49.716;17.158;2023-06-26T05:49:28;99174.41;;;20.07;62.10
77587;BME280;66744;49.716;17.158;2023-06-26T05:52:30;99182.28;;;20.14;62.46
77587;BME280;66744;49.716;17.158;2023-06-26T05:55:31;99178.34;;;20.26;61.32
77587;BME280;66744;49.716;17.158;2023-06-26T05:58:33;99170.31;;;20.39;61.52
77587;BME280;66744;49.716;17.158;2023-06-26T06:01:35;99182.38;;;20.62;60.22
77587;BME280;66744;49.716;17.158;2023-06-26T06:04:42;99178.38;;;20.79;60.01
77587;BME280;66744;49.716;17.158;2023-06-26T06:07:57;99167.50;;;20.81;59.92
77587;BME280;66744;49.716;17.158;2023-06-26T06:11:00;99169.59;;;20.97;59.81
77587;BME280;66744;49.716;17.158;2023-06-26T06:14:02;99169.34;;;21.01;58.29
77587;BME280;66744;49.716;17.158;2023-06-26T06:17:04;99161.03;;;21.18;58.25
77587;BME280;66744;49.716;17.158;2023-06-26T06:20:05;99173.78;;;21.35;58.11
77587;BME280;66744;49.716;17.158;2023-06-26T06:23:07;99168.97;;;21.41;55.98
77587;BME280;66744;49.716;17.158;2023-06-26T06:26:10;99162.13;;;21.42;55.24
77587;BME280;66744;49.716;17.158;2023-06-26T06:29:11;99172.53;;;21.47;53.70
77587;BME280;66744;49.716;17.158;2023-06-26T06:32:15;99167.47;;;21.51;54.98
77587;BME280;66744;49.716;17.158;2023-06-26T06:35:19;99164.91;;;21.59;54.47
77587;BME280;66744;49.716;17.158;2023-06-26T06:38:20;99168.50;;;21.76;53.14
77587;BME280;66744;49.716;17.158;2023-06-26T06:41:21;99170.31;;;21.90;53.72
77587;BME280;66744;49.716;17.158;2023-06-26T06:44:23;99171.84;;;22.08;53.88
77587;BME280;66744;49.716;17.158;2023-06-26T06:47:24;99164.19;;;22.14;51.77
77587;BME280;66744;49.716;17.158;2023-06-26T06:50:25;99166.19;;;22.30;51.00
77587;BME280;66744;49.716;17.158;2023-06-26T06:53:27;99165.94;;;22.45;50.61
77587;BME280;66744;49.716;17.158;2023-06-26T06:56:28;99153.41;;;22.57;50.50
77587;BME280;66744;49.716;17.158;2023-06-26T06:59:30;99163.09;;;22.67;48.30
77587;BME280;66744;49.716;17.158;2023-06-26T07:02:31;99155.44;;;22.73;48.04
77587;BME280;66744;49.716;17.158;2023-06-26T07:05:32;99157.94;;;22.82;49.08
77587;BME280;66744;49.716;17.158;2023-06-26T07:08:34;99159.66;;;22.96;49.75
77587;BME280;66744;49.716;17.158;2023-06-26T07:11:36;99161.91;;;23.09;49.80
77587;BME280;66744;49.716;17.158;2023-06-26T07:14:40;99169.97;;;23.23;49.34
77587;BME280;66744;49.716;17.158;2023-06-26T07:17:44;99162.78;;;23.34;48.80
77587;BME280;66744;49.716;17.158;2023-06-26T07:20:48;99155.09;;;23.34;47.46
77587;BME280;66744;49.716;17.158;2023-06-26T07:23:49;99160.44;;;23.49;48.41
77587;BME280;66744;49.716;17.158;2023-06-26T07:26:51;99167.25;;;23.53;47.50
77587;BME280;66744;49.716;17.158;2023-06-26T07:29:52;99171.84;;;23.56;47.32
77587;BME280;66744;49.716;17.158;2023-06-26T07:32:56;99169.25;;;23.58;46.42
77587;BME280;66744;49.716;17.158;2023-06-26T07:35:57;99163.88;;;23.66;47.12
77587;BME280;66744;49.716;17.158;2023-06-26T07:39:01;99169.88;;;23.81;46.91
77587;BME280;66744;49.716;17.158;2023-06-26T07:42:02;99160.09;;;23.93;47.27
77587;BME280;66744;49.716;17.158;2023-06-26T07:45:04;99156.88;;;24.13;46.57
77587;BME280;66744;49.716;17.158;2023-06-26T07:48:13;99145.00;;;24.26;45.73
77587;BME280;66744;49.716;17.158;2023-06-26T07:51:18;99145.00;;;24.26;44.48
77587;BME280;66744;49.716;17.158;2023-06-26T07:54:28;99141.09;;;24.35;43.96
77587;BME280;66744;49.716;17.158;2023-06-26T07:57:37;99137.72;;;24.36;43.86
77587;BME280;66744;49.716;17.158;2023-06-26T08:00:40;99145.22;;;24.52;41.95
77587;BME280;66744;49.716;17.158;2023-06-26T08:03:41;99143.19;;;24.71;40.15
77587;BME280;66744;49.716;17.158;2023-06-26T08:06:43;99142.06;;;24.80;40.45
77587;BME280;66744;49.716;17.158;2023-06-26T08:09:44;99136.66;;;24.88;41.02
77587;BME280;66744;49.716;17.158;2023-06-26T08:12:46;99131.66;;;24.99;39.54
77587;BME280;66744;49.716;17.158;2023-06-26T08:16:13;99138.00;;;25.18;40.69
77587;BME280;66744;49.716;17.158;2023-06-26T08:19:14;99130.94;;;25.30;40.86
77587;BME280;66744;49.716;17.158;2023-06-26T08:22:16;99129.72;;;25.45;41.67
77587;BME280;66744;49.716;17.158;2023-06-26T08:25:17;99134.28;;;25.48;39.48
77587;BME280;66744;49.716;17.158;2023-06-26T08:28:20;99139.00;;;25.58;41.07
77587;BME280;66744;49.716;17.158;2023-06-26T08:31:22;99132.13;;;25.72;39.57
77587;BME280;66744;49.716;17.158;2023-06-26T08:34:33;99135.16;;;25.74;38.71
77587;BME280;66744;49.716;17.158;2023-06-26T08:37:55;99124.22;;;25.71;38.97
77587;BME280;66744;49.716;17.158;2023-06-26T08:40:56;99119.00;;;25.75;38.85
77587;BME280;66744;49.716;17.158;2023-06-26T08:43:58;99117.09;;;25.83;38.72
77587;BME280;66744;49.716;17.158;2023-06-26T08:47:00;99116.56;;;25.84;39.45
77587;BME280;66744;49.716;17.158;2023-06-26T08:56:19;99108.84;;;26.17;38.77
77587;BME280;66744;49.716;17.158;2023-06-26T08:59:27;99114.03;;;26.26;39.05
77587;BME280;66744;49.716;17.158;2023-06-26T09:02:32;99105.28;;;26.29;38.48
77587;BME280;66744;49.716;17.158;2023-06-26T09:05:34;99103.44;;;26.19;38.49
77587;BME280;66744;49.716;17.158;2023-06-26T09:08:36;99102.53;;;26.11;36.09
77587;BME280;66744;49.716;17.158;2023-06-26T09:11:40;99095.03;;;26.13;37.14
77587;BME280;66744;49.716;17.158;2023-06-26T09:14:42;99100.72;;;26.26;38.08
77587;BME280;66744;49.716;17.158;2023-06-26T09:17:44;99093.13;;;26.34;37.38
77587;BME280;66744;49.716;17.158;2023-06-26T09:20:59;99094.75;;;26.43;36.93
77587;BME280;66744;49.716;17.158;2023-06-26T09:24:05;99088.03;;;26.59;36.80
77587;BME280;66744;49.716;17.158;2023-06-26T09:27:06;99092.91;;;26.72;35.75
77587;BME280;66744;49.716;17.158;2023-06-26T09:30:08;99097.47;;;26.62;36.36
77587;BME280;66744;49.716;17.158;2023-06-26T09:33:20;99089.00;;;26.62;34.82
77587;BME280;66744;49.716;17.158;2023-06-26T09:36:21;99090.09;;;26.59;35.14
77587;BME280;66744;49.716;17.158;2023-06-26T09:39:29;99077.53;;;26.60;33.90
77587;BME280;66744;49.716;17.158;2023-06-26T09:42:31;99077.72;;;26.62;34.31
77587;BME280;66744;49.716;17.158;2023-06-26T09:45:33;99084.00;;;26.68;34.84
77587;BME280;66744;49.716;17.158;2023-06-26T09:48:35;99081.97;;;26.68;33.64
77587;BME280;66744;49.716;17.158;2023-06-26T09:51:38;99072.09;;;26.75;34.00
77587;BME280;66744;49.716;17.158;2023-06-26T09:54:40;99068.59;;;26.82;35.20
77587;BME280;66744;49.716;17.158;2023-06-26T09:57:42;99069.13;;;26.93;34.88
77587;BME280;66744;49.716;17.158;2023-06-26T10:00:44;99063.78;;;27.03;33.58
77587;BME280;66744;49.716;17.158;2023-06-26T10:03:45;99071.97;;;27.14;34.47
77587;BME280;66744;49.716;17.158;2023-06-26T10:06:49;99070.16;;;27.17;33.57
77587;BME280;66744;49.716;17.158;2023-06-26T10:09:55;99066.00;;;27.18;32.80
77587;BME280;66744;49.716;17.158;2023-06-26T10:13:21;99062.19;;;27.28;32.83
77587;BME280;66744;49.716;17.158;2023-06-26T10:16:26;99055.09;;;27.35;32.57
77587;BME280;66744;49.716;17.158;2023-06-26T10:19:30;99056.88;;;27.25;33.31
77587;BME280;66744;49.716;17.158;2023-06-26T10:22:46;99052.31;;;27.22;31.83
77587;BME280;66744;49.716;17.158;2023-06-26T10:25:52;99051.44;;;27.27;32.69
77587;BME280;66744;49.716;17.158;2023-06-26T10:28:57;99041.53;;;27.33;32.51
77587;BME280;66744;49.716;17.158;2023-06-26T10:32:03;99053.19;;;27.50;32.61
77587;BME280;66744;49.716;17.158;2023-06-26T10:35:06;99047.06;;;27.59;32.62
77587;BME280;66744;49.716;17.158;2023-06-26T10:38:08;99047.00;;;27.73;32.28
77587;BME280;66744;49.716;17.158;2023-06-26T10:41:10;99030.03;;;27.73;31.87
77587;BME280;66744;49.716;17.158;2023-06-26T10:44:16;99026.66;;;27.74;31.62
77587;BME280;66744;49.716;17.158;2023-06-26T10:47:32;99025.63;;;27.85;32.59
77587;BME280;66744;49.716;17.158;2023-06-26T10:50:34;99016.84;;;27.96;30.57
77587;BME280;66744;49.716;17.158;2023-06-26T10:53:38;99026.25;;;27.98;31.71
77587;BME280;66744;49.716;17.158;2023-06-26T10:56:48;99015.88;;;27.93;30.59
77587;BME280;66744;49.716;17.158;2023-06-26T11:00:09;99012.50;;;27.95;31.15
77587;BME280;66744;49.716;17.158;2023-06-26T11:03:24;99006.25;;;27.89;30.25
77587;BME280;66744;49.716;17.158;2023-06-26T11:06:25;99006.38;;;28.04;31.05
77587;BME280;66744;49.716;17.158;2023-06-26T11:10:07;99009.63;;;28.16;30.79
77587;BME280;66744;49.716;17.158;2023-06-26T11:13:04;98991.22;;;28.22;30.55
77587;BME280;66744;49.716;17.158;2023-06-26T11:16:06;98997.88;;;28.40;30.92
77587;BME280;66744;49.716;17.158;2023-06-26T11:19:10;98992.06;;;28.45;31.15
77587;BME280;66744;49.716;17.158;2023-06-26T11:22:12;98988.13;;;28.48;30.56
77587;BME280;66744;49.716;17.158;2023-06-26T11:25:22;98984.44;;;28.25;29.40
77587;BME280;66744;49.716;17.158;2023-06-26T11:28:25;98979.38;;;28.31;30.83
77587;BME280;66744;49.716;17.158;2023-06-26T11:31:27;98984.72;;;28.42;30.08
77587;BME280;66744;49.716;17.158;2023-06-26T11:34:32;98982.63;;;28.43;30.72
77587;BME280;66744;49.716;17.158;2023-06-26T11:37:35;98989.44;;;28.47;30.98
77587;BME280;66744;49.716;17.158;2023-06-26T11:40:37;98983.22;;;28.41;29.08
77587;BME280;66744;49.716;17.158;2023-06-26T11:43:39;98982.69;;;28.50;30.09
77587;BME280;66744;49.716;17.158;2023-06-26T11:46:41;98984.19;;;28.51;29.19
77587;BME280;66744;49.716;17.158;2023-06-26T11:49:44;98976.63;;;28.46;29.76
77587;BME280;66744;49.716;17.158;2023-06-26T11:52:45;98967.38;;;28.46;29.22
77587;BME280;66744;49.716;17.158;2023-06-26T11:55:53;98969.09;;;28.49;30.59
77587;BME280;66744;49.716;17.158;2023-06-26T11:59:06;98961.78;;;28.61;30.84
77587;BME280;66744;49.716;17.158;2023-06-26T12:02:15;98959.38;;;28.65;31.25
77587;BME280;66744;49.716;17.158;2023-06-26T12:05:17;98963.16;;;28.67;31.34
77587;BME280;66744;49.716;17.158;2023-06-26T12:08:23;98951.66;;;28.73;31.63
77587;BME280;66744;49.716;17.158;2023-06-26T12:11:27;98952.63;;;28.76;30.94
77587;BME280;66744;49.716;17.158;2023-06-26T12:14:34;98955.22;;;28.66;29.54
77587;BME280;66744;49.716;17.158;2023-06-26T12:17:39;98950.66;;;28.63;30.14
77587;BME280;66744;49.716;17.158;2023-06-26T12:20:41;98941.28;;;28.68;30.54
77587;BME280;66744;49.716;17.158;2023-06-26T12:23:48;98943.91;;;28.66;29.66
77587;BME280;66744;49.716;17.158;2023-06-26T12:26:59;98935.41;;;28.58;31.51
77587;BME280;66744;49.716;17.158;2023-06-26T12:30:11;98940.53;;;28.67;30.77
77587;BME280;66744;49.716;17.158;2023-06-26T12:33:17;98940.13;;;28.63;30.82
77587;BME280;66744;49.716;17.158;2023-06-26T12:36:19;98938.41;;;28.53;30.99
77587;BME280;66744;49.716;17.158;2023-06-26T12:39:20;98927.31;;;28.62;31.46
77587;BME280;66744;49.716;17.158;2023-06-26T12:42:32;98931.13;;;28.65;31.27
77587;BME280;66744;49.716;17.158;2023-06-26T12:45:40;98932.38;;;28.56;30.96
77587;BME280;66744;49.716;17.158;2023-06-26T12:48:43;98917.13;;;28.59;32.10
77587;BME280;66744;49.716;17.158;2023-06-26T12:51:47;98918.50;;;28.74;31.89
77587;BME280;66744;49.716;17.158;2023-06-26T12:54:54;98914.94;;;28.88;31.29
77587;BME280;66744;49.716;17.158;2023-06-26T12:58:01;98914.56;;;28.99;30.95
77587;BME280;66744;49.716;17.158;2023-06-26T13:01:04;98901.53;;;29.11;31.08
77587;BME280;66744;49.716;17.158;2023-06-26T13:04:23;98899.69;;;29.29;30.15
77587;BME280;66744;49.716;17.158;2023-06-26T13:07:27;98903.63;;;29.41;29.60
77587;BME280;66744;49.716;17.158;2023-06-26T13:10:36;98893.47;;;29.23;29.13
77587;BME280;66744;49.716;17.158;2023-06-26T13:13:43;98891.91;;;29.22;29.96
77587;BME280;66744;49.716;17.158;2023-06-26T13:16:46;98899.47;;;29.19;30.13
77587;BME280;66744;49.716;17.158;2023-06-26T13:20:08;98883.06;;;29.18;29.95
77587;BME280;66744;49.716;17.158;2023-06-26T13:23:10;98877.41;;;29.18;30.00
77587;BME280;66744;49.716;17.158;2023-06-26T13:26:11;98879.09;;;29.21;29.56
77587;BME280;66744;49.716;17.158;2023-06-26T13:29:12;98873.25;;;29.19;29.84
77587;BME280;66744;49.716;17.158;2023-06-26T13:32:14;98865.34;;;29.33;29.86
77587;BME280;66744;49.716;17.158;2023-06-26T13:35:16;98861.19;;;29.34;30.63
77587;BME280;66744;49.716;17.158;2023-06-26T13:38:22;98863.25;;;29.41;31.44
77587;BME280;66744;49.716;17.158;2023-06-26T13:41:27;98869.63;;;29.49;29.60
77587;BME280;66744;49.716;17.158;2023-06-26T13:44:29;98851.91;;;29.48;28.84
77587;BME280;66744;49.716;17.158;2023-06-26T13:47:31;98843.44;;;29.33;31.16
77587;BME280;66744;49.716;17.158;2023-06-26T13:50:32;98835.50;;;29.39;30.89
77587;BME280;66744;49.716;17.158;2023-06-26T13:53:33;98845.47;;;29.55;30.59
77587;BME280;66744;49.716;17.158;2023-06-26T13:56:37;98837.31;;;29.67;30.36
77587;BME280;66744;49.716;17.158;2023-06-26T13:59:39;98837.47;;;29.76;29.80
77587;BME280;66744;49.716;17.158;2023-06-26T14:02:40;98838.63;;;29.73;30.35
77587;BME280;66744;49.716;17.158;2023-06-26T14:05:41;98828.63;;;29.65;29.66
77587;BME280;66744;49.716;17.158;2023-06-26T14:08:43;98831.13;;;29.53;31.35
77587;BME280;66744;49.716;17.158;2023-06-26T14:11:47;98823.59;;;29.48;31.45
77587;BME280;66744;49.716;17.158;2023-06-26T14:14:48;98826.19;;;29.61;30.48
77587;BME280;66744;49.716;17.158;2023-06-26T14:17:52;98823.00;;;29.57;30.36
77587;BME280;66744;49.716;17.158;2023-06-26T14:20:53;98815.44;;;29.60;30.89
77587;BME280;66744;49.716;17.158;2023-06-26T14:23:55;98825.06;;;29.64;30.91
77587;BME280;66744;49.716;17.158;2023-06-26T14:26:56;98816.38;;;29.62;30.52
77587;BME280;66744;49.716;17.158;2023-06-26T14:30:00;98814.16;;;29.53;30.28
77587;BME280;66744;49.716;17.158;2023-06-26T14:33:03;98807.50;;;29.58;31.23
77587;BME280;66744;49.716;17.158;2023-06-26T14:36:05;98807.34;;;29.56;31.45
77587;BME280;66744;49.716;17.158;2023-06-26T14:39:06;98802.78;;;29.61;30.77
77587;BME280;66744;49.716;17.158;2023-06-26T14:42:09;98803.75;;;29.63;30.91
77587;BME280;66744;49.716;17.158;2023-06-26T14:45:11;98800.69;;;29.69;29.29
77587;BME280;66744;49.716;17.158;2023-06-26T14:48:12;98796.94;;;29.66;30.42
77587;BME280;66744;49.716;17.158;2023-06-26T14:51:19;98786.94;;;29.58;29.93
77587;BME280;66744;49.716;17.158;2023-06-26T14:54:20;98779.25;;;29.51;31.00
77587;BME280;66744;49.716;17.158;2023-06-26T14:57:24;98780.13;;;29.61;31.49
77587;BME280;66744;49.716;17.158;2023-06-26T15:00:25;98770.91;;;29.53;32.32
77587;BME280;66744;49.716;17.158;2023-06-26T15:03:28;98783.38;;;29.50;30.70
77587;BME280;66744;49.716;17.158;2023-06-26T15:06:29;98762.63;;;29.47;30.84
77587;BME280;66744;49.716;17.158;2023-06-26T15:09:33;98768.47;;;29.49;31.11
77587;BME280;66744;49.716;17.158;2023-06-26T15:12:35;98775.44;;;29.56;31.80
77587;BME280;66744;49.716;17.158;2023-06-26T15:15:36;98765.97;;;29.61;31.23
77587;BME280;66744;49.716;17.158;2023-06-26T15:18:38;98755.06;;;29.57;32.27
77587;BME280;66744;49.716;17.158;2023-06-26T15:21:40;98766.38;;;29.57;31.96
77587;BME280;66744;49.716;17.158;2023-06-26T15:24:41;98769.75;;;29.63;31.91
77587;BME280;66744;49.716;17.158;2023-06-26T15:28:14;98763.19;;;29.53;31.52
77587;BME280;66744;49.716;17.158;2023-06-26T15:31:18;98765.03;;;29.58;32.58
77587;BME280;66744;49.716;17.158;2023-06-26T15:34:21;98753.16;;;29.52;32.04
77587;BME280;66744;49.716;17.158;2023-06-26T15:37:26;98750.78;;;29.41;32.19
77587;BME280;66744;49.716;17.158;2023-06-26T15:40:28;98748.31;;;29.38;33.44
77587;BME280;66744;49.716;17.158;2023-06-26T15:43:35;98739.66;;;29.28;32.69
77587;BME280;66744;49.716;17.158;2023-06-26T15:46:40;98733.63;;;29.16;32.35
77587;BME280;66744;49.716;17.158;2023-06-26T15:49:41;98739.09;;;29.22;32.93
77587;BME280;66744;49.716;17.158;2023-06-26T15:52:42;98733.47;;;29.14;34.29
77587;BME280;66744;49.716;17.158;2023-06-26T15:55:44;98731.41;;;29.07;33.56
77587;BME280;66744;49.716;17.158;2023-06-26T15:58:45;98719.94;;;28.98;34.44
77587;BME280;66744;49.716;17.158;2023-06-26T16:01:47;98716.19;;;28.88;34.21
77587;BME280;66744;49.716;17.158;2023-06-26T16:04:50;98699.63;;;28.77;34.84
77587;BME280;66744;49.716;17.158;2023-06-26T16:07:51;98702.81;;;28.81;34.91